sensor_id;sensor_type;location;lat;lon;timestamp;pressure;altitude;pressure_sealevel;temperature;humidity
33404;BME280;19751;40.274;18.268;2022-10-14T00:00:13;100884.41;;;18.17;100.00
33404;BME280;19751;40.274;18.268;2022-10-14T00:02:49;100881.44;;;18.19;100.00
33404;BME280;19751;40.274;18.268;2022-10-14T00:05:14;100870.28;;;18.20;100.00
33404;BME280;19751;40.274;18.268;2022-10-14T00:07:46;100870.91;;;18.22;100.00
33404;BME280;19751;40.274;18.268;2022-10-14T00:10:12;100864.38;;;18.23;100.00
33404;BME280;19751;40.274;18.268;2022-10-14T00:12:37;100867.72;;;18.25;100.00
33404;BME280;19751;40.274;18.268;2022-10-14T00:15:08;100867.47;;;18.27;100.00
33404;BME280;19751;40.274;18.268;2022-10-14T00:17:35;100863.44;;;18.29;100.00
33404;BME280;19751;40.274;18.268;2022-10-14T00:20:03;100863.19;;;18.31;100.00
33404;BME280;19751;40.274;18.268;2022-10-14T00:22:28;100865.66;;;18.32;100.00
33404;BME280;19751;40.274;18.268;2022-10-14T00:24:54;100861.03;;;18.33;100.00
33404;BME280;19751;40.274;18.268;2022-10-14T00:27:21;100852.03;;;18.32;100.00
33404;BME280;19751;40.274;18.268;2022-10-14T00:29:46;100853.72;;;18.33;100.00
33404;BME280;19751;40.274;18.268;2022-10-14T00:32:13;100848.47;;;18.32;100.00
33404;BME280;19751;40.274;18.268;2022-10-14T00:34:39;100855.38;;;18.34;100.00
33404;BME280;19751;40.274;18.268;2022-10-14T00:37:05;100843.63;;;18.34;100.00
33404;BME280;19751;40.274;18.268;2022-10-14T00:39:30;100839.84;;;18.35;100.00
33404;BME280;19751;40.274;18.268;2022-10-14T00:41:59;100839.00;;;18.34;100.00
33404;BME280;19751;40.274;18.268;2022-10-14T00:46:52;100850.75;;;18.35;100.00
33404;BME280;19751;40.274;18.268;2022-10-14T00:49:32;100848.25;;;18.33;100.00
33404;BME280;19751;40.274;18.268;2022-10-14T00:54:35;100842.81;;;18.33;100.00
33404;BME280;19751;40.274;18.268;2022-10-14T00:57:02;100841.75;;;18.34;100.00
33404;BME280;19751;40.274;18.268;2022-10-14T00:59:28;100833.56;;;18.34;100.00
33404;BME280;19751;40.274;18.268;2022-10-14T01:01:54;100835.22;;;18.35;100.00
33404;BME280;19751;40.274;18.268;2022-10-14T01:04:20;100834.13;;;18.36;100.00
33404;BME280;19751;40.274;18.268;2022-10-14T01:07:14;100827.84;;;18.36;100.00
33404;BME280;19751;40.274;18.268;2022-10-14T01:12:37;100821.56;;;18.35;100.00
33404;BME280;19751;40.274;18.268;2022-10-14T01:21:19;100826.66;;;18.32;100.00
33404;BME280;19751;40.274;18.268;2022-10-14T01:33:05;100823.59;;;18.28;100.00
33404;BME280;19751;40.274;18.268;2022-10-14T01:41:22;100812.69;;;18.28;100.00
33404;BME280;19751;40.274;18.268;2022-10-14T01:43:53;100817.91;;;18.30;100.00
33404;BME280;19751;40.274;18.268;2022-10-14T01:46:22;100811.63;;;18.29;100.00
33404;BME280;19751;40.274;18.268;2022-10-14T01:48:52;100806.19;;;18.29;100.00
33404;BME280;19751;40.274;18.268;2022-10-14T01:51:32;100805.34;;;18.29;100.00
33404;BME280;19751;40.274;18.268;2022-10-14T01:54:05;100802.84;;;18.27;100.00
33404;BME280;19751;40.274;18.268;2022-10-14T01:56:33;100804.50;;;18.28;100.00
33404;BME280;19751;40.274;18.268;2022-10-14T01:59:00;100795.75;;;18.26;100.00
33404;BME280;19751;40.274;18.268;2022-10-14T02:01:28;100799.53;;;18.25;100.00
33404;BME280;19751;40.274;18.268;2022-10-14T02:03:54;100791.94;;;18.27;100.00
33404;BME280;19751;40.274;18.268;2022-10-14T02:06:32;100794.91;;;18.26;100.00
33404;BME280;19751;40.274;18.268;2022-10-14T02:12:03;100797.66;;;18.26;100.00
33404;BME280;19751;40.274;18.268;2022-10-14T02:17:32;100801.19;;;18.26;100.00
33404;BME280;19751;40.274;18.268;2022-10-14T02:23:14;100797.03;;;18.24;100.00
33404;BME280;19751;40.274;18.268;2022-10-14T02:25:44;100798.13;;;18.23;100.00
33404;BME280;19751;40.274;18.268;2022-10-14T02:28:15;100796.22;;;18.23;100.00
33404;BME280;19751;40.274;18.268;2022-10-14T02:30:47;100796.47;;;18.22;100.00
33404;BME280;19751;40.274;18.268;2022-10-14T02:33:15;100791.22;;;18.20;100.00
33404;BME280;19751;40.274;18.268;2022-10-14T02:35:47;100790.41;;;18.20;100.00
33404;BME280;19751;40.274;18.268;2022-10-14T02:38:14;100789.84;;;18.18;100.00
33404;BME280;19751;40.274;18.268;2022-10-14T02:40:45;100799.91;;;18.17;100.00
33404;BME280;19751;40.274;18.268;2022-10-14T02:43:12;100794.69;;;18.16;100.00
33404;BME280;19751;40.274;18.268;2022-10-14T02:45:39;100796.34;;;18.17;100.00
33404;BME280;19751;40.274;18.268;2022-10-14T02:48:07;100796.56;;;18.15;100.00
33404;BME280;19751;40.274;18.268;2022-10-14T02:50:35;100802.03;;;18.15;100.00
33404;BME280;19751;40.274;18.268;2022-10-14T02:53:01;100802.63;;;18.17;100.00
33404;BME280;19751;40.274;18.268;2022-10-14T02:55:27;100799.31;;;18.15;100.00
33404;BME280;19751;40.274;18.268;2022-10-14T02:57:52;100799.78;;;18.12;100.00
33404;BME280;19751;40.274;18.268;2022-10-14T03:00:20;100791.59;;;18.12;100.00
33404;BME280;19751;40.274;18.268;2022-10-14T03:02:46;100783.66;;;18.10;100.00
33404;BME280;19751;40.274;18.268;2022-10-14T03:05:11;100786.03;;;18.07;100.00
33404;BME280;19751;40.274;18.268;2022-10-14T03:07:37;100787.09;;;18.06;100.00
33404;BME280;19751;40.274;18.268;2022-10-14T03:10:05;100786.28;;;18.05;100.00
33404;BME280;19751;40.274;18.268;2022-10-14T03:12:31;100785.69;;;18.03;100.00
33404;BME280;19751;40.274;18.268;2022-10-14T03:14:57;100784.84;;;18.03;100.00
33404;BME280;19751;40.274;18.268;2022-10-14T03:17:22;100786.75;;;18.02;100.00
33404;BME280;19751;40.274;18.268;2022-10-14T03:19:48;100787.81;;;18.01;100.00
33404;BME280;19751;40.274;18.268;2022-10-14T03:22:13;100798.72;;;18.01;100.00
33404;BME280;19751;40.274;18.268;2022-10-14T03:24:40;100797.91;;;18.01;100.00
33404;BME280;19751;40.274;18.268;2022-10-14T03:27:07;100793.50;;;18.00;100.00
33404;BME280;19751;40.274;18.268;2022-10-14T03:29:32;100794.56;;;17.99;100.00
33404;BME280;19751;40.274;18.268;2022-10-14T03:32:00;100797.28;;;17.99;100.00
33404;BME280;19751;40.274;18.268;2022-10-14T03:34:25;100790.19;;;17.98;100.00
33404;BME280;19751;40.274;18.268;2022-10-14T03:36:52;100794.19;;;17.95;100.00
33404;BME280;19751;40.274;18.268;2022-10-14T03:39:18;100790.06;;;17.93;100.00
33404;BME280;19751;40.274;18.268;2022-10-14T03:41:44;100806.06;;;17.89;100.00
33404;BME280;19751;40.274;18.268;2022-10-14T03:44:11;100796.09;;;17.83;100.00
33404;BME280;19751;40.274;18.268;2022-10-14T03:46:37;100795.75;;;17.79;100.00
33404;BME280;19751;40.274;18.268;2022-10-14T03:49:03;100786.41;;;17.75;100.00
33404;BME280;19751;40.274;18.268;2022-10-14T03:51:28;100783.03;;;17.73;100.00
33404;BME280;19751;40.274;18.268;2022-10-14T03:53:54;100781.38;;;17.72;100.00
33404;BME280;19751;40.274;18.268;2022-10-14T03:56:19;100781.28;;;17.67;100.00
33404;BME280;19751;40.274;18.268;2022-10-14T03:58:45;100779.84;;;17.64;100.00
33404;BME280;19751;40.274;18.268;2022-10-14T04:01:11;100780.28;;;17.61;100.00
33404;BME280;19751;40.274;18.268;2022-10-14T04:03:36;100779.72;;;17.59;100.00
33404;BME280;19751;40.274;18.268;2022-10-14T04:06:02;100771.44;;;17.54;100.00
33404;BME280;19751;40.274;18.268;2022-10-14T04:08:27;100765.13;;;17.54;100.00
33404;BME280;19751;40.274;18.268;2022-10-14T04:10:54;100767.25;;;17.52;100.00
33404;BME280;19751;40.274;18.268;2022-10-14T04:13:20;100761.00;;;17.51;100.00
33404;BME280;19751;40.274;18.268;2022-10-14T04:15:52;100755.75;;;17.50;100.00
33404;BME280;19751;40.274;18.268;2022-10-14T04:18:18;100754.72;;;17.51;100.00
33404;BME280;19751;40.274;18.268;2022-10-14T04:20:44;100762.66;;;17.52;100.00
33404;BME280;19751;40.274;18.268;2022-10-14T04:23:09;100753.41;;;17.53;100.00
33404;BME280;19751;40.274;18.268;2022-10-14T04:25:37;100752.13;;;17.56;100.00
33404;BME280;19751;40.274;18.268;2022-10-14T04:28:06;100742.06;;;17.56;100.00
33404;BME280;19751;40.274;18.268;2022-10-14T04:30:31;100749.97;;;17.58;100.00
33404;BME280;19751;40.274;18.268;2022-10-14T04:32:58;100748.69;;;17.60;100.00
33404;BME280;19751;40.274;18.268;2022-10-14T04:35:24;100738.63;;;17.61;100.00
33404;BME280;19751;40.274;18.268;2022-10-14T04:37:50;100747.41;;;17.63;100.00
33404;BME280;19751;40.274;18.268;2022-10-14T04:40:16;100746.91;;;17.66;100.00
33404;BME280;19751;40.274;18.268;2022-10-14T04:42:44;100745.84;;;17.67;100.00
33404;BME280;19751;40.274;18.268;2022-10-14T04:45:10;100740.41;;;17.67;100.00
33404;BME280;19751;40.274;18.268;2022-10-14T04:47:36;100733.06;;;17.68;100.00
33404;BME280;19751;40.274;18.268;2022-10-14T04:50:01;100747.50;;;17.68;100.00
33404;BME280;19751;40.274;18.268;2022-10-14T04:52:27;100749.63;;;17.66;100.00
33404;BME280;19751;40.274;18.268;2022-10-14T04:54:53;100750.69;;;17.65;100.00
33404;BME280;19751;40.274;18.268;2022-10-14T04:57:18;100750.69;;;17.65;100.00
33404;BME280;19751;40.274;18.268;2022-10-14T04:59:46;100753.16;;;17.67;100.00
33404;BME280;19751;40.274;18.268;2022-10-14T05:02:12;100746.69;;;17.68;100.00
33404;BME280;19751;40.274;18.268;2022-10-14T05:04:43;100747.50;;;17.68;100.00
33404;BME280;19751;40.274;18.268;2022-10-14T05:07:09;100752.72;;;17.70;100.00
33404;BME280;19751;40.274;18.268;2022-10-14T05:09:34;100747.03;;;17.71;100.00
33404;BME280;19751;40.274;18.268;2022-10-14T05:12:00;100751.41;;;17.72;100.00
33404;BME280;19751;40.274;18.268;2022-10-14T05:14:26;100757.34;;;17.69;100.00
33404;BME280;19751;40.274;18.268;2022-10-14T05:16:52;100764.56;;;17.63;100.00
33404;BME280;19751;40.274;18.268;2022-10-14T05:19:18;100759.00;;;17.58;100.00
33404;BME280;19751;40.274;18.268;2022-10-14T05:21:53;100751.66;;;17.59;100.00
33404;BME280;19751;40.274;18.268;2022-10-14T05:24:18;100748.09;;;17.58;100.00
33404;BME280;19751;40.274;18.268;2022-10-14T05:26:44;100746.22;;;17.59;100.00
33404;BME280;19751;40.274;18.268;2022-10-14T05:29:10;100749.50;;;17.61;100.00
33404;BME280;19751;40.274;18.268;2022-10-14T05:31:37;100741.34;;;17.61;100.00
33404;BME280;19751;40.274;18.268;2022-10-14T05:34:02;100752.22;;;17.61;100.00
33404;BME280;19751;40.274;18.268;2022-10-14T05:36:29;100749.50;;;17.61;100.00
33404;BME280;19751;40.274;18.268;2022-10-14T05:38:55;100750.59;;;17.60;100.00
33404;BME280;19751;40.274;18.268;2022-10-14T05:41:25;100751.16;;;17.62;100.00
33404;BME280;19751;40.274;18.268;2022-10-14T05:43:50;100753.66;;;17.63;100.00
33404;BME280;19751;40.274;18.268;2022-10-14T05:46:16;100751.53;;;17.65;100.00
33404;BME280;19751;40.274;18.268;2022-10-14T05:48:42;100761.34;;;17.67;100.00
33404;BME280;19751;40.274;18.268;2022-10-14T05:51:08;100752.13;;;17.68;100.00
33404;BME280;19751;40.274;18.268;2022-10-14T05:53:34;100748.91;;;17.71;100.00
33404;BME280;19751;40.274;18.268;2022-10-14T05:56:05;100752.25;;;17.73;100.00
33404;BME280;19751;40.274;18.268;2022-10-14T05:58:32;100754.53;;;17.76;100.00
33404;BME280;19751;40.274;18.268;2022-10-14T06:01:01;100756.53;;;17.80;100.00
33404;BME280;19751;40.274;18.268;2022-10-14T06:03:28;100754.19;;;17.84;100.00
33404;BME280;19751;40.274;18.268;2022-10-14T06:05:55;100764.38;;;17.88;100.00
33404;BME280;19751;40.274;18.268;2022-10-14T06:08:21;100768.28;;;17.93;100.00
33404;BME280;19751;40.274;18.268;2022-10-14T06:10:47;100765.31;;;17.94;100.00
33404;BME280;19751;40.274;18.268;2022-10-14T06:13:13;100774.09;;;17.96;100.00
33404;BME280;19751;40.274;18.268;2022-10-14T06:15:39;100767.91;;;18.01;100.00
33404;BME280;19751;40.274;18.268;2022-10-14T06:18:04;100782.22;;;18.08;100.00
33404;BME280;19751;40.274;18.268;2022-10-14T06:20:30;100776.91;;;18.13;100.00
33404;BME280;19751;40.274;18.268;2022-10-14T06:22:58;100763.41;;;18.18;100.00
33404;BME280;19751;40.274;18.268;2022-10-14T06:25:24;100772.16;;;18.20;100.00
33404;BME280;19751;40.274;18.268;2022-10-14T06:27:50;100773.56;;;18.23;100.00
33404;BME280;19751;40.274;18.268;2022-10-14T06:30:16;100770.97;;;18.28;100.00
33404;BME280;19751;40.274;18.268;2022-10-14T06:32:42;100777.00;;;18.30;100.00
33404;BME280;19751;40.274;18.268;2022-10-14T06:35:09;100775.94;;;18.31;100.00
33404;BME280;19751;40.274;18.268;2022-10-14T06:37:35;100779.25;;;18.33;100.00
33404;BME280;19751;40.274;18.268;2022-10-14T06:40:00;100785.88;;;18.37;100.00
33404;BME280;19751;40.274;18.268;2022-10-14T06:42:27;100781.84;;;18.39;100.00
33404;BME280;19751;40.274;18.268;2022-10-14T06:44:53;100783.03;;;18.44;100.00
33404;BME280;19751;40.274;18.268;2022-10-14T06:47:18;100778.19;;;18.46;100.00
33404;BME280;19751;40.274;18.268;2022-10-14T06:49:44;100785.03;;;18.48;100.00
33404;BME280;19751;40.274;18.268;2022-10-14T06:52:09;100775.78;;;18.49;100.00
33404;BME280;19751;40.274;18.268;2022-10-14T06:54:35;100787.53;;;18.50;100.00
33404;BME280;19751;40.274;18.268;2022-10-14T06:57:02;100783.72;;;18.51;100.00
33404;BME280;19751;40.274;18.268;2022-10-14T06:59:28;100792.00;;;18.56;100.00
33404;BME280;19751;40.274;18.268;2022-10-14T07:01:54;100798.66;;;18.60;100.00
33404;BME280;19751;40.274;18.268;2022-10-14T07:04:20;100803.63;;;18.63;100.00
33404;BME280;19751;40.274;18.268;2022-10-14T07:06:46;100795.31;;;18.70;100.00
33404;BME280;19751;40.274;18.268;2022-10-14T07:09:14;100792.72;;;18.75;100.00
33404;BME280;19751;40.274;18.268;2022-10-14T07:11:39;100794.72;;;18.79;100.00
33404;BME280;19751;40.274;18.268;2022-10-14T07:14:09;100804.91;;;18.84;100.00
33404;BME280;19751;40.274;18.268;2022-10-14T07:16:34;100794.34;;;18.87;100.00
33404;BME280;19751;40.274;18.268;2022-10-14T07:19:00;100795.72;;;18.90;100.00
33404;BME280;19751;40.274;18.268;2022-10-14T07:21:26;100800.13;;;18.91;100.00
33404;BME280;19751;40.274;18.268;2022-10-14T07:23:51;100817.00;;;18.88;100.00
33404;BME280;19751;40.274;18.268;2022-10-14T07:26:17;100814.38;;;18.81;100.00
33404;BME280;19751;40.274;18.268;2022-10-14T07:28:43;100815.38;;;18.75;100.00
33404;BME280;19751;40.274;18.268;2022-10-14T07:31:10;100821.31;;;18.72;100.00
33404;BME280;19751;40.274;18.268;2022-10-14T07:33:37;100826.38;;;18.69;100.00
33404;BME280;19751;40.274;18.268;2022-10-14T07:36:12;100826.03;;;18.65;100.00
33404;BME280;19751;40.274;18.268;2022-10-14T07:38:39;100824.38;;;18.64;100.00
33404;BME280;19751;40.274;18.268;2022-10-14T07:41:10;100827.09;;;18.64;100.00
33404;BME280;19751;40.274;18.268;2022-10-14T07:44:03;100829.22;;;18.62;100.00
33404;BME280;19751;40.274;18.268;2022-10-14T07:46:31;100827.56;;;18.61;100.00
33404;BME280;19751;40.274;18.268;2022-10-14T07:49:09;100839.91;;;18.63;100.00
33404;BME280;19751;40.274;18.268;2022-10-14T07:51:35;100834.69;;;18.62;100.00
33404;BME280;19751;40.274;18.268;2022-10-14T07:54:05;100832.56;;;18.64;100.00
33404;BME280;19751;40.274;18.268;2022-10-14T07:56:35;100840.50;;;18.66;100.00
33404;BME280;19751;40.274;18.268;2022-10-14T07:59:01;100836.94;;;18.65;100.00
33404;BME280;19751;40.274;18.268;2022-10-14T08:01:26;100838.38;;;18.68;100.00
33404;BME280;19751;40.274;18.268;2022-10-14T08:03:52;100841.31;;;18.66;100.00
33404;BME280;19751;40.274;18.268;2022-10-14T08:06:20;100843.81;;;18.68;100.00
33404;BME280;19751;40.274;18.268;2022-10-14T08:08:46;100855.34;;;18.70;100.00
33404;BME280;19751;40.274;18.268;2022-10-14T08:11:14;100846.09;;;18.71;100.00
33404;BME280;19751;40.274;18.268;2022-10-14T08:13:42;100843.13;;;18.72;100.00
33404;BME280;19751;40.274;18.268;2022-10-14T08:16:28;100846.69;;;18.73;100.00
33404;BME280;19751;40.274;18.268;2022-10-14T08:18:56;100846.44;;;18.74;100.00
33404;BME280;19751;40.274;18.268;2022-10-14T08:21:22;100844.66;;;18.80;100.00
33404;BME280;19751;40.274;18.268;2022-10-14T08:23:48;100843.09;;;18.84;100.00
33404;BME280;19751;40.274;18.268;2022-10-14T08:28:48;100830.16;;;18.91;100.00
33404;BME280;19751;40.274;18.268;2022-10-14T08:31:15;100836.75;;;18.95;100.00
33404;BME280;19751;40.274;18.268;2022-10-14T08:33:41;100829.53;;;19.01;100.00
33404;BME280;19751;40.274;18.268;2022-10-14T08:36:12;100838.41;;;19.08;100.00
33404;BME280;19751;40.274;18.268;2022-10-14T08:38:38;100835.75;;;19.13;100.00
33404;BME280;19751;40.274;18.268;2022-10-14T08:46:22;100830.41;;;19.18;100.00
33404;BME280;19751;40.274;18.268;2022-10-14T08:48:49;100823.28;;;19.17;100.00
33404;BME280;19751;40.274;18.268;2022-10-14T08:51:20;100832.31;;;19.18;100.00
33404;BME280;19751;40.274;18.268;2022-10-14T08:53:52;100824.84;;;19.13;100.00
33404;BME280;19751;40.274;18.268;2022-10-14T08:56:21;100823.19;;;19.12;100.00
33404;BME280;19751;40.274;18.268;2022-10-14T08:58:49;100820.47;;;19.12;100.00
33404;BME280;19751;40.274;18.268;2022-10-14T09:01:30;100822.13;;;19.13;100.00
33404;BME280;19751;40.274;18.268;2022-10-14T09:04:05;100819.47;;;19.18;100.00
33404;BME280;19751;40.274;18.268;2022-10-14T09:06:33;100824.19;;;19.23;100.00
33404;BME280;19751;40.274;18.268;2022-10-14T09:09:37;100817.19;;;19.27;100.00
33404;BME280;19751;40.274;18.268;2022-10-14T09:12:10;100824.41;;;19.33;100.00
33404;BME280;19751;40.274;18.268;2022-10-14T09:14:41;100823.41;;;19.39;100.00
33404;BME280;19751;40.274;18.268;2022-10-14T09:17:27;100827.03;;;19.45;100.00
33404;BME280;19751;40.274;18.268;2022-10-14T09:22:33;100822.34;;;19.57;100.00
33404;BME280;19751;40.274;18.268;2022-10-14T09:24:59;100823.66;;;19.66;100.00
33404;BME280;19751;40.274;18.268;2022-10-14T09:27:27;100830.59;;;19.74;100.00
33404;BME280;19751;40.274;18.268;2022-10-14T09:29:58;100834.75;;;19.76;100.00
33404;BME280;19751;40.274;18.268;2022-10-14T09:34:58;100829.34;;;19.81;100.00
33404;BME280;19751;40.274;18.268;2022-10-14T09:37:34;100838.13;;;19.83;100.00
33404;BME280;19751;40.274;18.268;2022-10-14T09:45:22;100825.56;;;19.99;100.00
33404;BME280;19751;40.274;18.268;2022-10-14T09:47:58;100828.28;;;19.99;100.00
33404;BME280;19751;40.274;18.268;2022-10-14T09:50:38;100833.16;;;19.97;100.00
33404;BME280;19751;40.274;18.268;2022-10-14T09:53:24;100827.34;;;19.94;100.00
33404;BME280;19751;40.274;18.268;2022-10-14T09:55:57;100846.16;;;19.90;100.00
33404;BME280;19751;40.274;18.268;2022-10-14T10:00:59;100832.91;;;19.82;100.00
33404;BME280;19751;40.274;18.268;2022-10-14T10:03:32;100833.75;;;19.82;100.00
33404;BME280;19751;40.274;18.268;2022-10-14T10:06:03;100837.53;;;19.81;100.00
33404;BME280;19751;40.274;18.268;2022-10-14T10:08:30;100832.41;;;19.85;100.00
33404;BME280;19751;40.274;18.268;2022-10-14T10:11:08;100845.66;;;19.93;100.00
33404;BME280;19751;40.274;18.268;2022-10-14T10:13:36;100835.06;;;19.97;100.00
33404;BME280;19751;40.274;18.268;2022-10-14T10:16:29;100831.31;;;20.03;100.00
33404;BME280;19751;40.274;18.268;2022-10-14T10:18:56;100826.78;;;20.08;99.56
33404;BME280;19751;40.274;18.268;2022-10-14T10:21:29;100848.97;;;20.12;100.00
33404;BME280;19751;40.274;18.268;2022-10-14T10:24:00;100835.31;;;20.12;99.05
33404;BME280;19751;40.274;18.268;2022-10-14T10:26:28;100829.03;;;20.11;98.08
33404;BME280;19751;40.274;18.268;2022-10-14T10:29:03;100831.22;;;20.15;98.97
33404;BME280;19751;40.274;18.268;2022-10-14T10:32:08;100855.41;;;20.23;99.22
33404;BME280;19751;40.274;18.268;2022-10-14T10:37:21;100833.88;;;20.26;100.00
33404;BME280;19751;40.274;18.268;2022-10-14T10:42:34;100839.06;;;20.28;100.00
33404;BME280;19751;40.274;18.268;2022-10-14T10:48:18;100824.84;;;20.26;100.00
33404;BME280;19751;40.274;18.268;2022-10-14T10:56:08;100828.00;;;20.18;100.00
33404;BME280;19751;40.274;18.268;2022-10-14T10:59:14;100811.25;;;20.14;100.00
33404;BME280;19751;40.274;18.268;2022-10-14T11:04:46;100813.44;;;20.12;100.00
33404;BME280;19751;40.274;18.268;2022-10-14T11:07:52;100822.78;;;20.16;100.00
33404;BME280;19751;40.274;18.268;2022-10-14T11:10:47;100820.06;;;20.16;100.00
33404;BME280;19751;40.274;18.268;2022-10-14T11:16:17;100814.81;;;20.15;100.00
33404;BME280;19751;40.274;18.268;2022-10-14T11:22:04;100811.03;;;20.16;100.00
33404;BME280;19751;40.274;18.268;2022-10-14T11:24:56;100801.91;;;20.10;100.00
33404;BME280;19751;40.274;18.268;2022-10-14T11:46:45;100803.69;;;19.99;100.00
33404;BME280;19751;40.274;18.268;2022-10-14T11:49:31;100795.28;;;20.06;100.00
33404;BME280;19751;40.274;18.268;2022-10-14T11:52:04;100790.41;;;20.08;99.64
33404;BME280;19751;40.274;18.268;2022-10-14T11:54:43;100790.63;;;20.06;99.05
33404;BME280;19751;40.274;18.268;2022-10-14T11:57:17;100783.78;;;20.04;99.40
33404;BME280;19751;40.274;18.268;2022-10-14T12:00:00;100790.84;;;20.00;99.42
33404;BME280;19751;40.274;18.268;2022-10-14T12:02:43;100776.56;;;19.98;99.17
33404;BME280;19751;40.274;18.268;2022-10-14T12:07:59;100788.44;;;20.03;99.56
33404;BME280;19751;40.274;18.268;2022-10-14T12:13:26;100777.38;;;20.15;98.40
33404;BME280;19751;40.274;18.268;2022-10-14T12:15:55;100778.78;;;20.18;98.14
33404;BME280;19751;40.274;18.268;2022-10-14T12:18:21;100774.63;;;20.15;98.15
33404;BME280;19751;40.274;18.268;2022-10-14T12:20:54;100771.00;;;20.09;97.35
33404;BME280;19751;40.274;18.268;2022-10-14T12:23:37;100769.03;;;20.05;97.55
33404;BME280;19751;40.274;18.268;2022-10-14T12:28:55;100790.25;;;19.98;100.00
33404;BME280;19751;40.274;18.268;2022-10-14T12:31:35;100787.44;;;19.93;100.00
33404;BME280;19751;40.274;18.268;2022-10-14T12:36:36;100792.75;;;19.82;100.00
33404;BME280;19751;40.274;18.268;2022-10-14T12:41:51;100788.75;;;19.73;100.00
33404;BME280;19751;40.274;18.268;2022-10-14T12:44:21;100781.31;;;19.69;100.00
33404;BME280;19751;40.274;18.268;2022-10-14T12:46:49;100791.69;;;19.67;100.00
33404;BME280;19751;40.274;18.268;2022-10-14T12:51:55;100793.59;;;19.66;100.00
33404;BME280;19751;40.274;18.268;2022-10-14T12:54:22;100798.47;;;19.64;100.00
33404;BME280;19751;40.274;18.268;2022-10-14T12:56:57;100794.06;;;19.63;100.00
33404;BME280;19751;40.274;18.268;2022-10-14T12:59:29;100800.81;;;19.60;100.00
33404;BME280;19751;40.274;18.268;2022-10-14T13:01:58;100795.63;;;19.59;100.00
33404;BME280;19751;40.274;18.268;2022-10-14T13:04:26;100781.38;;;19.57;100.00
33404;BME280;19751;40.274;18.268;2022-10-14T13:07:56;100775.34;;;19.55;100.00
33404;BME280;19751;40.274;18.268;2022-10-14T13:10:26;100782.44;;;19.56;100.00
33404;BME280;19751;40.274;18.268;2022-10-14T13:12:53;100782.22;;;19.57;100.00
33404;BME280;19751;40.274;18.268;2022-10-14T13:15:47;100789.34;;;19.58;100.00
33404;BME280;19751;40.274;18.268;2022-10-14T13:20:56;100789.06;;;19.60;100.00
33404;BME280;19751;40.274;18.268;2022-10-14T13:23:44;100801.19;;;19.64;100.00
33404;BME280;19751;40.274;18.268;2022-10-14T13:48:05;100795.56;;;19.88;100.00
33404;BME280;19751;40.274;18.268;2022-10-14T13:50:35;100799.53;;;19.80;99.31
33404;BME280;19751;40.274;18.268;2022-10-14T13:53:05;100784.13;;;19.74;98.39
33404;BME280;19751;40.274;18.268;2022-10-14T13:55:45;100789.28;;;19.70;97.90
33404;BME280;19751;40.274;18.268;2022-10-14T13:58:16;100783.22;;;19.68;98.03
33404;BME280;19751;40.274;18.268;2022-10-14T14:01:01;100784.31;;;19.67;97.52
33404;BME280;19751;40.274;18.268;2022-10-14T14:03:35;100780.75;;;19.67;97.10
33404;BME280;19751;40.274;18.268;2022-10-14T14:06:07;100788.94;;;19.67;96.92
33404;BME280;19751;40.274;18.268;2022-10-14T14:08:39;100784.31;;;19.67;97.00
33404;BME280;19751;40.274;18.268;2022-10-14T14:11:15;100787.03;;;19.67;96.99
33404;BME280;19751;40.274;18.268;2022-10-14T14:13:46;100786.44;;;19.65;96.20
33404;BME280;19751;40.274;18.268;2022-10-14T14:16:21;100797.91;;;19.62;95.99
33404;BME280;19751;40.274;18.268;2022-10-14T14:18:49;100793.47;;;19.61;95.60
33404;BME280;19751;40.274;18.268;2022-10-14T14:21:20;100792.63;;;19.60;94.91
33404;BME280;19751;40.274;18.268;2022-10-14T14:23:53;100795.03;;;19.57;93.87
33404;BME280;19751;40.274;18.268;2022-10-14T14:26:31;100798.00;;;19.55;94.12
33404;BME280;19751;40.274;18.268;2022-10-14T14:28:58;100808.59;;;19.52;94.34
33404;BME280;19751;40.274;18.268;2022-10-14T14:31:25;100810.44;;;19.46;94.06
33404;BME280;19751;40.274;18.268;2022-10-14T14:33:56;100811.16;;;19.42;93.96
33404;BME280;19751;40.274;18.268;2022-10-14T14:36:26;100823.66;;;19.37;94.40
33404;BME280;19751;40.274;18.268;2022-10-14T14:38:58;100815.94;;;19.34;94.67
33404;BME280;19751;40.274;18.268;2022-10-14T14:41:29;100817.25;;;19.32;94.98
33404;BME280;19751;40.274;18.268;2022-10-14T14:44:03;100824.88;;;19.30;94.98
33404;BME280;19751;40.274;18.268;2022-10-14T14:46:36;100816.34;;;19.26;95.19
33404;BME280;19751;40.274;18.268;2022-10-14T14:49:05;100821.81;;;19.26;95.35
33404;BME280;19751;40.274;18.268;2022-10-14T14:51:34;100821.81;;;19.26;95.66
33404;BME280;19751;40.274;18.268;2022-10-14T14:54:01;100816.34;;;19.26;96.16
33404;BME280;19751;40.274;18.268;2022-10-14T14:56:36;100819.34;;;19.25;96.36
33404;BME280;19751;40.274;18.268;2022-10-14T14:59:17;100814.94;;;19.24;96.83
33404;BME280;19751;40.274;18.268;2022-10-14T15:01:44;100818.50;;;19.24;97.29
33404;BME280;19751;40.274;18.268;2022-10-14T15:04:32;100826.19;;;19.27;97.35
33404;BME280;19751;40.274;18.268;2022-10-14T15:07:14;100819.38;;;19.42;97.36